Overview Statistics Trail Chart Weather Telemetry Raw packets
 

This is the latest recevied weather packets stored in our database for station/object HP1COO-13. If no packets are shown the sender has not sent any weather packets the latest 10 day(s).

<< 37 38 39 40 41 42 43 >>
Time Temp. Humidity Pressure Rain* Wind** Luminosity Snow
1788053211 27.78° C 89% 1008.2 hPa 0 mm - - -
1788052578 27.78° C 89% 1008.2 hPa 0 mm - - -
1788051951 28.33° C 88% 1008.1 hPa 0 mm - - -
1788051313 27.78° C 88% 1007.9 hPa 0 mm - - -
1788050679 28.33° C 88% 1007.8 hPa 0 mm - - -
1788050046 28.33° C 88% 1007.7 hPa 0 mm - - -
1788049413 27.78° C 89% 1007.3 hPa 0 mm - - -
1788048780 27.78° C 90% 1007.1 hPa 0 mm - - -
1788048147 27.78° C 91% 1006.7 hPa 0 mm - - -
1788047514 27.78° C 92% 1006.7 hPa 0 mm - - -
1788046881 27.78° C 91% 1006.5 hPa 0 mm - - -
1788046248 28.33° C 91% 1006.4 hPa 0 mm - - -
1788045615 28.33° C 91% 1006.1 hPa 0 mm - - -
1788044982 28.33° C 91% 1005.8 hPa 0 mm - - -
1788044349 28.33° C 90% 1006.3 hPa 0 mm - - -
1788043716 27.78° C 90% 1006.2 hPa 1.52 mm - - -
1788043083 28.33° C 93% 1006.1 hPa 2.29 mm - - -
1788042450 28.89° C 91% 1006.1 hPa 2.29 mm - - -
1788041817 28.89° C 90% 1006 hPa 2.29 mm - - -
1788041184 29.44° C 89% 1005.4 hPa 2.29 mm - - -
1788040551 30° C 86% 1005.5 hPa 0.76 mm - - -
1788039918 31.11° C 83% 1005 hPa 0.25 mm - - -
1788039285 32.78° C 77% 1005.5 hPa 0 mm - - -
1788038652 33.33° C 72% 1005.3 hPa 0 mm - - -
1788038019 33.33° C 71% 1005.3 hPa 0 mm - - -

* Rain latest hour (hover to see other rain measurements)
** Current wind speed in m/s (hover to see current wind gust speed)